Disclaimer

Please do not use the information listed here in-flight or in-navigation, as they are not provided to us by the airports but are provided by volunteers, so they might be outdated.

Search


Regions


Airport information page

Radio informations:
Tower (TWR) - 118.1 MHz
Approach (APP) - 124.2 MHz

Airport informations:
Latitude: 27° 13' 05.94" N
Longitude: 056° 22' 40.26" E
Elevation: 22 feet - 7 meters
Operating hours: 24 hour operations
Operating agency: Military-civil joint use airport
Timezone: UTC+3:30
Fuel: JP-4, Wide cut turbine fuel MIL Spec T-5624

Jet A1, without icing nhibitor.

100/130 MIL Spec, low lead, aviation gasoline (BLUE)

Runway information:
03R/21L - 12008 x 148 feet< - >3660 x 45 meters
03L/21R - 11341 x 98 feet< - >3457 x 30 meters

Recent METARs:
OIKB 180600Z 07006KT 4000 HZ SCT025 28/23 Q1014 A2997 NOSIG
OIKB 180630Z 07006KT 4000 HZ SCT025 28/23 Q1014 A2997
OIKB 180630Z 07006KT 4000 HZ SCT025 28/23 Q1014 A2997

Airport on the map: